sensor_id;sensor_type;location;lat;lon;timestamp;P1;durP1;ratioP1;P2;durP2;ratioP2
19151;SDS011;9708;53.114;9.388;2023-02-15T00:01:24;18.30;;;8.73;;
19151;SDS011;9708;53.114;9.388;2023-02-15T00:03:53;29.77;;;8.93;;
19151;SDS011;9708;53.114;9.388;2023-02-15T00:06:19;30.53;;;8.80;;
19151;SDS011;9708;53.114;9.388;2023-02-15T00:08:46;24.33;;;7.50;;
19151;SDS011;9708;53.114;9.388;2023-02-15T00:11:14;19.40;;;8.90;;
19151;SDS011;9708;53.114;9.388;2023-02-15T00:14:02;14.27;;;6.63;;
19151;SDS011;9708;53.114;9.388;2023-02-15T00:16:29;26.43;;;7.47;;
19151;SDS011;9708;53.114;9.388;2023-02-15T00:18:57;19.40;;;7.03;;
19151;SDS011;9708;53.114;9.388;2023-02-15T00:21:26;16.50;;;7.60;;
19151;SDS011;9708;53.114;9.388;2023-02-15T00:23:54;15.23;;;7.90;;
19151;SDS011;9708;53.114;9.388;2023-02-15T00:26:21;25.13;;;7.07;;
19151;SDS011;9708;53.114;9.388;2023-02-15T00:28:48;20.60;;;7.23;;
19151;SDS011;9708;53.114;9.388;2023-02-15T00:31:14;19.03;;;6.13;;
19151;SDS011;9708;53.114;9.388;2023-02-15T00:33:41;21.33;;;8.57;;
19151;SDS011;9708;53.114;9.388;2023-02-15T00:36:10;17.20;;;7.87;;
19151;SDS011;9708;53.114;9.388;2023-02-15T00:38:37;20.43;;;7.37;;
19151;SDS011;9708;53.114;9.388;2023-02-15T00:41:05;39.63;;;8.37;;
19151;SDS011;9708;53.114;9.388;2023-02-15T00:43:33;10.20;;;6.87;;
19151;SDS011;9708;53.114;9.388;2023-02-15T00:46:01;27.80;;;6.87;;
19151;SDS011;9708;53.114;9.388;2023-02-15T00:48:28;19.87;;;5.73;;
19151;SDS011;9708;53.114;9.388;2023-02-15T00:50:56;15.43;;;7.83;;
19151;SDS011;9708;53.114;9.388;2023-02-15T00:53:25;11.17;;;6.30;;
19151;SDS011;9708;53.114;9.388;2023-02-15T00:55:53;14.17;;;8.60;;
19151;SDS011;9708;53.114;9.388;2023-02-15T00:58:19;30.57;;;9.10;;
19151;SDS011;9708;53.114;9.388;2023-02-15T01:00:46;19.07;;;7.40;;
19151;SDS011;9708;53.114;9.388;2023-02-15T01:03:14;13.70;;;7.87;;
19151;SDS011;9708;53.114;9.388;2023-02-15T01:05:42;30.63;;;8.50;;
19151;SDS011;9708;53.114;9.388;2023-02-15T01:08:09;16.90;;;8.07;;
19151;SDS011;9708;53.114;9.388;2023-02-15T01:10:37;15.13;;;7.63;;
19151;SDS011;9708;53.114;9.388;2023-02-15T01:13:04;15.33;;;7.40;;
19151;SDS011;9708;53.114;9.388;2023-02-15T01:15:33;22.87;;;8.57;;
19151;SDS011;9708;53.114;9.388;2023-02-15T01:18:00;29.37;;;8.37;;
19151;SDS011;9708;53.114;9.388;2023-02-15T01:20:27;39.20;;;9.53;;
19151;SDS011;9708;53.114;9.388;2023-02-15T01:22:55;19.03;;;6.07;;
19151;SDS011;9708;53.114;9.388;2023-02-15T01:25:23;14.73;;;6.77;;
19151;SDS011;9708;53.114;9.388;2023-02-15T01:27:51;15.20;;;7.97;;
19151;SDS011;9708;53.114;9.388;2023-02-15T01:30:18;16.20;;;6.73;;
19151;SDS011;9708;53.114;9.388;2023-02-15T01:32:45;23.30;;;8.20;;
19151;SDS011;9708;53.114;9.388;2023-02-15T01:35:12;26.77;;;9.87;;
19151;SDS011;9708;53.114;9.388;2023-02-15T01:37:38;16.87;;;6.03;;
19151;SDS011;9708;53.114;9.388;2023-02-15T01:40:08;11.87;;;5.97;;
19151;SDS011;9708;53.114;9.388;2023-02-15T01:42:38;15.13;;;8.13;;
19151;SDS011;9708;53.114;9.388;2023-02-15T01:45:10;9.80;;;5.70;;
19151;SDS011;9708;53.114;9.388;2023-02-15T01:47:50;29.43;;;6.93;;
19151;SDS011;9708;53.114;9.388;2023-02-15T01:50:25;14.93;;;5.87;;
19151;SDS011;9708;53.114;9.388;2023-02-15T01:52:57;21.70;;;6.43;;
19151;SDS011;9708;53.114;9.388;2023-02-15T01:55:30;18.37;;;7.27;;
19151;SDS011;9708;53.114;9.388;2023-02-15T01:58:02;29.13;;;6.90;;
19151;SDS011;9708;53.114;9.388;2023-02-15T02:00:30;13.00;;;7.23;;
19151;SDS011;9708;53.114;9.388;2023-02-15T02:02:58;15.27;;;5.27;;
19151;SDS011;9708;53.114;9.388;2023-02-15T02:05:26;18.10;;;5.57;;
19151;SDS011;9708;53.114;9.388;2023-02-15T02:07:54;26.13;;;6.50;;
19151;SDS011;9708;53.114;9.388;2023-02-15T02:10:24;14.87;;;8.03;;
19151;SDS011;9708;53.114;9.388;2023-02-15T02:12:52;11.20;;;4.77;;
19151;SDS011;9708;53.114;9.388;2023-02-15T02:15:21;16.13;;;8.03;;
19151;SDS011;9708;53.114;9.388;2023-02-15T02:17:58;29.57;;;6.97;;
19151;SDS011;9708;53.114;9.388;2023-02-15T02:20:47;9.73;;;5.03;;
19151;SDS011;9708;53.114;9.388;2023-02-15T02:23:27;19.43;;;6.17;;
19151;SDS011;9708;53.114;9.388;2023-02-15T02:29:11;10.20;;;5.60;;
19151;SDS011;9708;53.114;9.388;2023-02-15T02:35:22;17.23;;;7.57;;
19151;SDS011;9708;53.114;9.388;2023-02-15T02:37:55;9.50;;;5.13;;
19151;SDS011;9708;53.114;9.388;2023-02-15T02:40:30;15.73;;;6.90;;
19151;SDS011;9708;53.114;9.388;2023-02-15T02:43:08;19.00;;;6.03;;
19151;SDS011;9708;53.114;9.388;2023-02-15T02:45:43;25.97;;;6.23;;
19151;SDS011;9708;53.114;9.388;2023-02-15T02:48:17;8.40;;;4.97;;
19151;SDS011;9708;53.114;9.388;2023-02-15T02:50:49;20.90;;;5.27;;
19151;SDS011;9708;53.114;9.388;2023-02-15T02:53:15;14.03;;;7.23;;
19151;SDS011;9708;53.114;9.388;2023-02-15T02:55:43;12.97;;;5.37;;
19151;SDS011;9708;53.114;9.388;2023-02-15T02:58:14;10.20;;;4.87;;
19151;SDS011;9708;53.114;9.388;2023-02-15T03:00:45;25.77;;;6.47;;
19151;SDS011;9708;53.114;9.388;2023-02-15T03:03:16;9.10;;;5.07;;
19151;SDS011;9708;53.114;9.388;2023-02-15T03:05:51;26.33;;;6.27;;
19151;SDS011;9708;53.114;9.388;2023-02-15T03:08:23;21.87;;;6.67;;
19151;SDS011;9708;53.114;9.388;2023-02-15T03:10:53;20.57;;;6.17;;
19151;SDS011;9708;53.114;9.388;2023-02-15T03:13:22;15.57;;;6.63;;
19151;SDS011;9708;53.114;9.388;2023-02-15T03:15:49;13.97;;;6.93;;
19151;SDS011;9708;53.114;9.388;2023-02-15T03:18:36;28.20;;;6.07;;
19151;SDS011;9708;53.114;9.388;2023-02-15T03:21:08;8.73;;;4.93;;
19151;SDS011;9708;53.114;9.388;2023-02-15T03:23:47;10.07;;;5.03;;
19151;SDS011;9708;53.114;9.388;2023-02-15T03:26:18;13.60;;;6.10;;
19151;SDS011;9708;53.114;9.388;2023-02-15T03:28:47;12.43;;;4.60;;
19151;SDS011;9708;53.114;9.388;2023-02-15T03:31:16;20.00;;;5.83;;
19151;SDS011;9708;53.114;9.388;2023-02-15T03:33:45;19.20;;;6.00;;
19151;SDS011;9708;53.114;9.388;2023-02-15T03:36:20;12.17;;;6.27;;
19151;SDS011;9708;53.114;9.388;2023-02-15T03:38:51;10.77;;;5.57;;
19151;SDS011;9708;53.114;9.388;2023-02-15T03:41:24;9.73;;;4.33;;
19151;SDS011;9708;53.114;9.388;2023-02-15T03:43:56;16.33;;;6.27;;
19151;SDS011;9708;53.114;9.388;2023-02-15T03:46:26;11.50;;;5.50;;
19151;SDS011;9708;53.114;9.388;2023-02-15T03:48:56;11.63;;;6.37;;
19151;SDS011;9708;53.114;9.388;2023-02-15T03:51:29;13.63;;;5.77;;
19151;SDS011;9708;53.114;9.388;2023-02-15T03:54:03;9.77;;;5.60;;
19151;SDS011;9708;53.114;9.388;2023-02-15T03:56:33;15.20;;;5.07;;
19151;SDS011;9708;53.114;9.388;2023-02-15T03:59:01;7.77;;;5.70;;
19151;SDS011;9708;53.114;9.388;2023-02-15T04:01:47;15.67;;;5.00;;
19151;SDS011;9708;53.114;9.388;2023-02-15T04:04:26;10.10;;;5.83;;
19151;SDS011;9708;53.114;9.388;2023-02-15T04:06:59;21.17;;;6.43;;
19151;SDS011;9708;53.114;9.388;2023-02-15T04:09:27;19.87;;;6.37;;
19151;SDS011;9708;53.114;9.388;2023-02-15T04:12:11;10.33;;;5.70;;
19151;SDS011;9708;53.114;9.388;2023-02-15T04:14:38;32.50;;;6.33;;
19151;SDS011;9708;53.114;9.388;2023-02-15T04:17:22;8.17;;;4.47;;
19151;SDS011;9708;53.114;9.388;2023-02-15T04:19:49;17.43;;;6.47;;
19151;SDS011;9708;53.114;9.388;2023-02-15T04:22:34;18.30;;;6.43;;
19151;SDS011;9708;53.114;9.388;2023-02-15T04:25:19;11.17;;;6.03;;
19151;SDS011;9708;53.114;9.388;2023-02-15T04:27:46;7.33;;;4.17;;
19151;SDS011;9708;53.114;9.388;2023-02-15T04:30:15;24.60;;;6.83;;
19151;SDS011;9708;53.114;9.388;2023-02-15T04:32:44;8.33;;;4.53;;
19151;SDS011;9708;53.114;9.388;2023-02-15T04:35:11;7.33;;;4.90;;
19151;SDS011;9708;53.114;9.388;2023-02-15T04:37:40;18.87;;;5.83;;
19151;SDS011;9708;53.114;9.388;2023-02-15T04:40:08;8.73;;;6.07;;
19151;SDS011;9708;53.114;9.388;2023-02-15T04:42:36;13.90;;;5.33;;
19151;SDS011;9708;53.114;9.388;2023-02-15T04:45:03;8.73;;;5.03;;
19151;SDS011;9708;53.114;9.388;2023-02-15T04:47:30;10.87;;;5.03;;
19151;SDS011;9708;53.114;9.388;2023-02-15T04:49:57;8.67;;;5.90;;
19151;SDS011;9708;53.114;9.388;2023-02-15T04:52:24;7.03;;;4.10;;
19151;SDS011;9708;53.114;9.388;2023-02-15T04:54:52;6.30;;;5.23;;
19151;SDS011;9708;53.114;9.388;2023-02-15T04:57:19;8.90;;;5.43;;
19151;SDS011;9708;53.114;9.388;2023-02-15T04:59:46;10.23;;;5.43;;
19151;SDS011;9708;53.114;9.388;2023-02-15T05:02:13;12.03;;;5.80;;
19151;SDS011;9708;53.114;9.388;2023-02-15T05:04:39;6.03;;;3.93;;
19151;SDS011;9708;53.114;9.388;2023-02-15T05:07:06;10.40;;;5.13;;
19151;SDS011;9708;53.114;9.388;2023-02-15T05:09:33;6.57;;;4.37;;
19151;SDS011;9708;53.114;9.388;2023-02-15T05:12:01;12.77;;;4.80;;
19151;SDS011;9708;53.114;9.388;2023-02-15T05:14:28;13.63;;;5.23;;
19151;SDS011;9708;53.114;9.388;2023-02-15T05:16:55;27.60;;;5.43;;
19151;SDS011;9708;53.114;9.388;2023-02-15T05:19:23;20.43;;;5.03;;
19151;SDS011;9708;53.114;9.388;2023-02-15T05:21:50;10.57;;;6.90;;
19151;SDS011;9708;53.114;9.388;2023-02-15T05:24:17;18.73;;;4.67;;
19151;SDS011;9708;53.114;9.388;2023-02-15T05:27:02;10.10;;;4.67;;
19151;SDS011;9708;53.114;9.388;2023-02-15T05:29:47;8.17;;;4.97;;
19151;SDS011;9708;53.114;9.388;2023-02-15T05:32:14;9.13;;;4.50;;
19151;SDS011;9708;53.114;9.388;2023-02-15T05:34:41;7.87;;;4.80;;
19151;SDS011;9708;53.114;9.388;2023-02-15T05:37:07;16.70;;;5.10;;
19151;SDS011;9708;53.114;9.388;2023-02-15T05:39:34;13.40;;;5.63;;
19151;SDS011;9708;53.114;9.388;2023-02-15T05:42:02;15.60;;;5.07;;
19151;SDS011;9708;53.114;9.388;2023-02-15T05:44:29;11.70;;;4.23;;
19151;SDS011;9708;53.114;9.388;2023-02-15T05:46:56;13.67;;;5.20;;
19151;SDS011;9708;53.114;9.388;2023-02-15T05:49:23;8.27;;;4.27;;
19151;SDS011;9708;53.114;9.388;2023-02-15T05:51:49;6.47;;;4.63;;
19151;SDS011;9708;53.114;9.388;2023-02-15T05:54:16;6.23;;;3.97;;
19151;SDS011;9708;53.114;9.388;2023-02-15T05:56:43;3.97;;;3.20;;
19151;SDS011;9708;53.114;9.388;2023-02-15T05:59:11;6.60;;;4.10;;
19151;SDS011;9708;53.114;9.388;2023-02-15T06:01:38;8.77;;;4.07;;
19151;SDS011;9708;53.114;9.388;2023-02-15T06:04:05;5.00;;;3.07;;
19151;SDS011;9708;53.114;9.388;2023-02-15T06:06:32;9.03;;;3.70;;
19151;SDS011;9708;53.114;9.388;2023-02-15T06:08:59;10.10;;;5.60;;
19151;SDS011;9708;53.114;9.388;2023-02-15T06:11:26;5.60;;;3.73;;
19151;SDS011;9708;53.114;9.388;2023-02-15T06:13:53;5.73;;;4.30;;
19151;SDS011;9708;53.114;9.388;2023-02-15T06:16:21;7.90;;;5.17;;
19151;SDS011;9708;53.114;9.388;2023-02-15T06:18:47;7.57;;;4.77;;
19151;SDS011;9708;53.114;9.388;2023-02-15T06:21:14;15.57;;;5.57;;
19151;SDS011;9708;53.114;9.388;2023-02-15T06:23:41;20.03;;;3.70;;
19151;SDS011;9708;53.114;9.388;2023-02-15T06:26:08;9.00;;;5.00;;
19151;SDS011;9708;53.114;9.388;2023-02-15T06:28:35;6.80;;;3.80;;
19151;SDS011;9708;53.114;9.388;2023-02-15T06:31:02;10.33;;;4.23;;
19151;SDS011;9708;53.114;9.388;2023-02-15T06:33:30;5.10;;;4.33;;
19151;SDS011;9708;53.114;9.388;2023-02-15T06:35:58;11.63;;;4.43;;
19151;SDS011;9708;53.114;9.388;2023-02-15T06:38:25;16.53;;;4.50;;
19151;SDS011;9708;53.114;9.388;2023-02-15T06:40:52;5.80;;;3.93;;
19151;SDS011;9708;53.114;9.388;2023-02-15T06:43:19;5.10;;;4.57;;
19151;SDS011;9708;53.114;9.388;2023-02-15T06:45:46;8.10;;;4.40;;
19151;SDS011;9708;53.114;9.388;2023-02-15T06:48:15;7.70;;;4.00;;
19151;SDS011;9708;53.114;9.388;2023-02-15T06:50:50;3.73;;;2.77;;
19151;SDS011;9708;53.114;9.388;2023-02-15T06:53:16;5.67;;;3.37;;
19151;SDS011;9708;53.114;9.388;2023-02-15T06:55:47;6.30;;;3.50;;
19151;SDS011;9708;53.114;9.388;2023-02-15T06:58:14;7.87;;;3.97;;
19151;SDS011;9708;53.114;9.388;2023-02-15T07:00:40;8.27;;;3.37;;
19151;SDS011;9708;53.114;9.388;2023-02-15T07:03:07;7.50;;;4.67;;
19151;SDS011;9708;53.114;9.388;2023-02-15T07:05:34;6.77;;;3.63;;
19151;SDS011;9708;53.114;9.388;2023-02-15T07:08:02;10.73;;;4.57;;
19151;SDS011;9708;53.114;9.388;2023-02-15T07:10:29;8.10;;;3.97;;
19151;SDS011;9708;53.114;9.388;2023-02-15T07:12:56;11.13;;;4.27;;
19151;SDS011;9708;53.114;9.388;2023-02-15T07:15:22;4.47;;;3.30;;
19151;SDS011;9708;53.114;9.388;2023-02-15T07:17:49;3.67;;;2.97;;
19151;SDS011;9708;53.114;9.388;2023-02-15T07:20:17;6.23;;;4.13;;
19151;SDS011;9708;53.114;9.388;2023-02-15T07:22:46;4.93;;;3.87;;
19151;SDS011;9708;53.114;9.388;2023-02-15T07:25:14;3.77;;;3.20;;
19151;SDS011;9708;53.114;9.388;2023-02-15T07:27:42;8.23;;;3.47;;
19151;SDS011;9708;53.114;9.388;2023-02-15T07:30:10;5.37;;;4.23;;
19151;SDS011;9708;53.114;9.388;2023-02-15T07:32:38;8.30;;;3.27;;
19151;SDS011;9708;53.114;9.388;2023-02-15T07:35:25;7.23;;;3.27;;
19151;SDS011;9708;53.114;9.388;2023-02-15T07:37:52;5.93;;;3.43;;
19151;SDS011;9708;53.114;9.388;2023-02-15T07:40:21;7.63;;;4.80;;
19151;SDS011;9708;53.114;9.388;2023-02-15T07:42:48;4.80;;;3.90;;
19151;SDS011;9708;53.114;9.388;2023-02-15T07:45:17;6.00;;;4.57;;
19151;SDS011;9708;53.114;9.388;2023-02-15T07:47:44;6.13;;;3.80;;
19151;SDS011;9708;53.114;9.388;2023-02-15T07:50:11;3.90;;;3.50;;
19151;SDS011;9708;53.114;9.388;2023-02-15T07:52:37;4.60;;;3.87;;
19151;SDS011;9708;53.114;9.388;2023-02-15T07:55:04;6.87;;;4.97;;
19151;SDS011;9708;53.114;9.388;2023-02-15T07:57:35;9.87;;;5.00;;
19151;SDS011;9708;53.114;9.388;2023-02-15T08:00:01;7.30;;;4.07;;
19151;SDS011;9708;53.114;9.388;2023-02-15T08:02:29;12.80;;;5.70;;
19151;SDS011;9708;53.114;9.388;2023-02-15T08:04:55;7.40;;;4.27;;
19151;SDS011;9708;53.114;9.388;2023-02-15T08:07:22;9.10;;;4.63;;
19151;SDS011;9708;53.114;9.388;2023-02-15T08:09:49;4.97;;;3.73;;
19151;SDS011;9708;53.114;9.388;2023-02-15T08:12:16;5.43;;;4.30;;
19151;SDS011;9708;53.114;9.388;2023-02-15T08:14:44;5.90;;;3.03;;
19151;SDS011;9708;53.114;9.388;2023-02-15T08:17:10;8.93;;;4.57;;
19151;SDS011;9708;53.114;9.388;2023-02-15T08:19:37;7.80;;;4.03;;
19151;SDS011;9708;53.114;9.388;2023-02-15T08:22:05;5.67;;;3.93;;
19151;SDS011;9708;53.114;9.388;2023-02-15T08:24:33;7.03;;;4.20;;
19151;SDS011;9708;53.114;9.388;2023-02-15T08:27:01;5.53;;;3.57;;
19151;SDS011;9708;53.114;9.388;2023-02-15T08:29:29;6.50;;;4.30;;
19151;SDS011;9708;53.114;9.388;2023-02-15T08:31:59;6.67;;;4.43;;
19151;SDS011;9708;53.114;9.388;2023-02-15T08:34:28;6.47;;;4.67;;
19151;SDS011;9708;53.114;9.388;2023-02-15T08:36:56;5.63;;;3.73;;
19151;SDS011;9708;53.114;9.388;2023-02-15T08:39:23;7.90;;;4.70;;
19151;SDS011;9708;53.114;9.388;2023-02-15T08:41:50;5.93;;;4.07;;
19151;SDS011;9708;53.114;9.388;2023-02-15T08:44:17;5.17;;;4.07;;
19151;SDS011;9708;53.114;9.388;2023-02-15T08:46:45;8.83;;;5.00;;
19151;SDS011;9708;53.114;9.388;2023-02-15T08:49:15;5.37;;;3.17;;
19151;SDS011;9708;53.114;9.388;2023-02-15T08:51:43;5.47;;;4.00;;
19151;SDS011;9708;53.114;9.388;2023-02-15T08:54:11;6.87;;;4.73;;
19151;SDS011;9708;53.114;9.388;2023-02-15T08:56:40;5.93;;;4.30;;
19151;SDS011;9708;53.114;9.388;2023-02-15T08:59:11;7.17;;;4.50;;
19151;SDS011;9708;53.114;9.388;2023-02-15T09:01:40;7.00;;;4.27;;
19151;SDS011;9708;53.114;9.388;2023-02-15T09:04:07;6.60;;;4.30;;
19151;SDS011;9708;53.114;9.388;2023-02-15T09:06:36;6.10;;;4.20;;
19151;SDS011;9708;53.114;9.388;2023-02-15T09:09:03;5.07;;;4.20;;
19151;SDS011;9708;53.114;9.388;2023-02-15T09:11:32;6.07;;;4.40;;
19151;SDS011;9708;53.114;9.388;2023-02-15T09:14:00;9.13;;;4.43;;
19151;SDS011;9708;53.114;9.388;2023-02-15T09:16:30;5.37;;;3.53;;
19151;SDS011;9708;53.114;9.388;2023-02-15T09:18:57;7.13;;;4.70;;
19151;SDS011;9708;53.114;9.388;2023-02-15T09:21:26;6.53;;;4.40;;
19151;SDS011;9708;53.114;9.388;2023-02-15T09:23:56;5.90;;;4.30;;
19151;SDS011;9708;53.114;9.388;2023-02-15T09:26:25;6.60;;;4.97;;
19151;SDS011;9708;53.114;9.388;2023-02-15T09:28:54;6.63;;;4.07;;
19151;SDS011;9708;53.114;9.388;2023-02-15T09:31:24;6.17;;;3.90;;
19151;SDS011;9708;53.114;9.388;2023-02-15T09:33:51;5.73;;;4.13;;
19151;SDS011;9708;53.114;9.388;2023-02-15T09:36:19;7.40;;;4.70;;
19151;SDS011;9708;53.114;9.388;2023-02-15T09:38:47;8.27;;;4.30;;
19151;SDS011;9708;53.114;9.388;2023-02-15T09:41:28;6.20;;;4.03;;
19151;SDS011;9708;53.114;9.388;2023-02-15T09:44:16;8.90;;;4.82;;
19151;SDS011;9708;53.114;9.388;2023-02-15T09:46:58;5.07;;;4.07;;
19151;SDS011;9708;53.114;9.388;2023-02-15T09:49:45;6.95;;;4.95;;
19151;SDS011;9708;53.114;9.388;2023-02-15T09:52:29;7.05;;;4.35;;
19151;SDS011;9708;53.114;9.388;2023-02-15T09:55:07;5.83;;;4.03;;
19151;SDS011;9708;53.114;9.388;2023-02-15T09:57:46;7.03;;;4.27;;
19151;SDS011;9708;53.114;9.388;2023-02-15T10:00:21;10.67;;;5.30;;
19151;SDS011;9708;53.114;9.388;2023-02-15T10:02:56;9.97;;;5.30;;
19151;SDS011;9708;53.114;9.388;2023-02-15T10:05:41;8.88;;;5.05;;
19151;SDS011;9708;53.114;9.388;2023-02-15T10:08:23;8.73;;;4.78;;
19151;SDS011;9708;53.114;9.388;2023-02-15T10:11:08;10.32;;;6.50;;
19151;SDS011;9708;53.114;9.388;2023-02-15T10:14:03;10.10;;;5.45;;
19151;SDS011;9708;53.114;9.388;2023-02-15T10:16:40;7.57;;;5.30;;
19151;SDS011;9708;53.114;9.388;2023-02-15T10:19:12;8.60;;;5.00;;
19151;SDS011;9708;53.114;9.388;2023-02-15T10:21:50;11.43;;;5.90;;
19151;SDS011;9708;53.114;9.388;2023-02-15T10:24:35;8.80;;;4.97;;
19151;SDS011;9708;53.114;9.388;2023-02-15T10:27:21;10.50;;;5.40;;
19151;SDS011;9708;53.114;9.388;2023-02-15T10:29:52;7.72;;;5.20;;
19151;SDS011;9708;53.114;9.388;2023-02-15T10:32:30;10.40;;;6.15;;
19151;SDS011;9708;53.114;9.388;2023-02-15T10:35:03;11.23;;;6.00;;
19151;SDS011;9708;53.114;9.388;2023-02-15T10:37:46;6.75;;;5.13;;
19151;SDS011;9708;53.114;9.388;2023-02-15T10:40:25;9.30;;;5.75;;
19151;SDS011;9708;53.114;9.388;2023-02-15T10:43:08;10.00;;;6.22;;
19151;SDS011;9708;53.114;9.388;2023-02-15T10:45:49;8.93;;;5.47;;
19151;SDS011;9708;53.114;9.388;2023-02-15T10:48:43;11.20;;;5.80;;
19151;SDS011;9708;53.114;9.388;2023-02-15T10:51:23;9.63;;;6.10;;
19151;SDS011;9708;53.114;9.388;2023-02-15T10:54:05;8.00;;;5.53;;
19151;SDS011;9708;53.114;9.388;2023-02-15T10:56:43;9.80;;;6.18;;
19151;SDS011;9708;53.114;9.388;2023-02-15T10:59:27;10.38;;;5.28;;
19151;SDS011;9708;53.114;9.388;2023-02-15T11:02:09;14.55;;;5.72;;
19151;SDS011;9708;53.114;9.388;2023-02-15T11:04:46;10.82;;;6.20;;
19151;SDS011;9708;53.114;9.388;2023-02-15T11:07:20;11.32;;;6.72;;
19151;SDS011;9708;53.114;9.388;2023-02-15T11:09:51;7.45;;;5.22;;
19151;SDS011;9708;53.114;9.388;2023-02-15T11:12:23;10.10;;;6.30;;
19151;SDS011;9708;53.114;9.388;2023-02-15T11:14:55;12.85;;;7.00;;
19151;SDS011;9708;53.114;9.388;2023-02-15T11:17:30;10.88;;;6.40;;
19151;SDS011;9708;53.114;9.388;2023-02-15T11:20:04;10.38;;;6.30;;
19151;SDS011;9708;53.114;9.388;2023-02-15T11:22:40;10.18;;;6.50;;
19151;SDS011;9708;53.114;9.388;2023-02-15T11:25:14;10.85;;;6.40;;
19151;SDS011;9708;53.114;9.388;2023-02-15T11:27:44;9.45;;;6.30;;
19151;SDS011;9708;53.114;9.388;2023-02-15T11:30:13;10.93;;;6.25;;
19151;SDS011;9708;53.114;9.388;2023-02-15T11:32:45;10.95;;;6.32;;
19151;SDS011;9708;53.114;9.388;2023-02-15T11:35:18;10.07;;;6.55;;
19151;SDS011;9708;53.114;9.388;2023-02-15T11:37:50;12.23;;;6.80;;
19151;SDS011;9708;53.114;9.388;2023-02-15T11:40:22;11.68;;;6.85;;
19151;SDS011;9708;53.114;9.388;2023-02-15T11:42:53;11.98;;;7.07;;
19151;SDS011;9708;53.114;9.388;2023-02-15T11:45:25;11.32;;;7.25;;
19151;SDS011;9708;53.114;9.388;2023-02-15T11:47:55;9.73;;;6.43;;
19151;SDS011;9708;53.114;9.388;2023-02-15T11:50:23;13.80;;;6.93;;
19151;SDS011;9708;53.114;9.388;2023-02-15T11:52:52;13.00;;;7.35;;
19151;SDS011;9708;53.114;9.388;2023-02-15T11:55:23;11.23;;;6.00;;
19151;SDS011;9708;53.114;9.388;2023-02-15T11:57:52;11.38;;;6.72;;
19151;SDS011;9708;53.114;9.388;2023-02-15T12:00:25;9.23;;;6.63;;
19151;SDS011;9708;53.114;9.388;2023-02-15T12:03:02;12.15;;;7.50;;
19151;SDS011;9708;53.114;9.388;2023-02-15T12:05:39;13.65;;;7.80;;
19151;SDS011;9708;53.114;9.388;2023-02-15T12:08:10;10.82;;;6.32;;
19151;SDS011;9708;53.114;9.388;2023-02-15T12:10:42;12.88;;;6.75;;
19151;SDS011;9708;53.114;9.388;2023-02-15T12:13:19;12.98;;;6.93;;
19151;SDS011;9708;53.114;9.388;2023-02-15T12:15:47;11.10;;;7.00;;
19151;SDS011;9708;53.114;9.388;2023-02-15T12:18:19;13.80;;;8.55;;
19151;SDS011;9708;53.114;9.388;2023-02-15T12:20:52;12.32;;;7.45;;
19151;SDS011;9708;53.114;9.388;2023-02-15T12:23:25;8.73;;;6.07;;
19151;SDS011;9708;53.114;9.388;2023-02-15T12:25:54;11.25;;;7.28;;
19151;SDS011;9708;53.114;9.388;2023-02-15T12:28:24;10.32;;;6.28;;
19151;SDS011;9708;53.114;9.388;2023-02-15T12:30:56;9.35;;;6.85;;
19151;SDS011;9708;53.114;9.388;2023-02-15T12:33:27;10.50;;;6.25;;
19151;SDS011;9708;53.114;9.388;2023-02-15T12:35:57;8.90;;;6.40;;
19151;SDS011;9708;53.114;9.388;2023-02-15T12:38:27;11.45;;;6.60;;
19151;SDS011;9708;53.114;9.388;2023-02-15T12:40:56;10.88;;;7.18;;
19151;SDS011;9708;53.114;9.388;2023-02-15T12:43:25;14.68;;;8.27;;
19151;SDS011;9708;53.114;9.388;2023-02-15T12:46:12;11.93;;;6.93;;
19151;SDS011;9708;53.114;9.388;2023-02-15T12:48:46;10.98;;;6.93;;
19151;SDS011;9708;53.114;9.388;2023-02-15T12:51:14;10.90;;;7.00;;
19151;SDS011;9708;53.114;9.388;2023-02-15T12:53:41;8.77;;;6.65;;
19151;SDS011;9708;53.114;9.388;2023-02-15T12:56:09;14.18;;;7.53;;
19151;SDS011;9708;53.114;9.388;2023-02-15T12:58:37;13.35;;;7.30;;
19151;SDS011;9708;53.114;9.388;2023-02-15T13:01:09;18.65;;;8.65;;
19151;SDS011;9708;53.114;9.388;2023-02-15T13:03:38;14.20;;;8.77;;
19151;SDS011;9708;53.114;9.388;2023-02-15T13:06:33;12.30;;;8.05;;
19151;SDS011;9708;53.114;9.388;2023-02-15T13:09:05;15.68;;;8.05;;
19151;SDS011;9708;53.114;9.388;2023-02-15T13:11:39;16.08;;;7.78;;
19151;SDS011;9708;53.114;9.388;2023-02-15T13:14:15;14.68;;;8.55;;
19151;SDS011;9708;53.114;9.388;2023-02-15T13:16:45;11.02;;;7.55;;
19151;SDS011;9708;53.114;9.388;2023-02-15T13:19:14;15.43;;;8.55;;
19151;SDS011;9708;53.114;9.388;2023-02-15T13:21:45;15.77;;;9.68;;
19151;SDS011;9708;53.114;9.388;2023-02-15T13:24:15;17.47;;;8.67;;
19151;SDS011;9708;53.114;9.388;2023-02-15T13:26:47;19.57;;;8.67;;
19151;SDS011;9708;53.114;9.388;2023-02-15T13:29:15;16.63;;;9.00;;
19151;SDS011;9708;53.114;9.388;2023-02-15T13:31:47;16.57;;;9.33;;
19151;SDS011;9708;53.114;9.388;2023-02-15T13:34:16;21.40;;;9.60;;
19151;SDS011;9708;53.114;9.388;2023-02-15T13:36:49;19.27;;;9.03;;
19151;SDS011;9708;53.114;9.388;2023-02-15T13:39:23;19.48;;;8.82;;
19151;SDS011;9708;53.114;9.388;2023-02-15T13:41:55;17.13;;;9.27;;
19151;SDS011;9708;53.114;9.388;2023-02-15T13:44:31;16.92;;;9.40;;
19151;SDS011;9708;53.114;9.388;2023-02-15T13:47:16;19.00;;;8.88;;
19151;SDS011;9708;53.114;9.388;2023-02-15T13:49:50;17.33;;;9.47;;
19151;SDS011;9708;53.114;9.388;2023-02-15T13:52:38;20.90;;;9.77;;
19151;SDS011;9708;53.114;9.388;2023-02-15T13:55:20;22.03;;;10.40;;
19151;SDS011;9708;53.114;9.388;2023-02-15T13:57:57;19.53;;;9.37;;
19151;SDS011;9708;53.114;9.388;2023-02-15T14:00:44;13.97;;;7.83;;
19151;SDS011;9708;53.114;9.388;2023-02-15T14:03:28;15.97;;;8.57;;
19151;SDS011;9708;53.114;9.388;2023-02-15T14:06:25;14.07;;;7.77;;
19151;SDS011;9708;53.114;9.388;2023-02-15T14:09:15;19.83;;;7.70;;
19151;SDS011;9708;53.114;9.388;2023-02-15T14:11:52;13.20;;;7.83;;
19151;SDS011;9708;53.114;9.388;2023-02-15T14:14:35;18.73;;;8.90;;
19151;SDS011;9708;53.114;9.388;2023-02-15T14:17:13;15.77;;;7.57;;
19151;SDS011;9708;53.114;9.388;2023-02-15T14:19:45;17.80;;;8.10;;
19151;SDS011;9708;53.114;9.388;2023-02-15T14:22:18;16.33;;;8.47;;
19151;SDS011;9708;53.114;9.388;2023-02-15T14:24:58;16.27;;;6.93;;
19151;SDS011;9708;53.114;9.388;2023-02-15T14:27:38;13.07;;;8.00;;
19151;SDS011;9708;53.114;9.388;2023-02-15T14:30:13;13.70;;;7.47;;
19151;SDS011;9708;53.114;9.388;2023-02-15T14:32:44;15.40;;;7.03;;
19151;SDS011;9708;53.114;9.388;2023-02-15T14:35:17;14.23;;;6.93;;
19151;SDS011;9708;53.114;9.388;2023-02-15T14:37:46;15.80;;;7.10;;
19151;SDS011;9708;53.114;9.388;2023-02-15T14:40:23;10.70;;;6.27;;
19151;SDS011;9708;53.114;9.388;2023-02-15T14:43:19;12.17;;;7.30;;
19151;SDS011;9708;53.114;9.388;2023-02-15T14:45:58;14.17;;;6.17;;
19151;SDS011;9708;53.114;9.388;2023-02-15T14:48:33;16.47;;;7.43;;
19151;SDS011;9708;53.114;9.388;2023-02-15T14:51:04;17.77;;;7.33;;
19151;SDS011;9708;53.114;9.388;2023-02-15T14:53:35;11.03;;;6.57;;
19151;SDS011;9708;53.114;9.388;2023-02-15T14:56:14;13.30;;;7.00;;
19151;SDS011;9708;53.114;9.388;2023-02-15T14:59:00;16.00;;;8.17;;
19151;SDS011;9708;53.114;9.388;2023-02-15T15:01:40;13.67;;;8.07;;
19151;SDS011;9708;53.114;9.388;2023-02-15T15:04:08;15.53;;;8.37;;
19151;SDS011;9708;53.114;9.388;2023-02-15T15:06:39;18.57;;;8.70;;
19151;SDS011;9708;53.114;9.388;2023-02-15T15:09:12;15.23;;;7.27;;
19151;SDS011;9708;53.114;9.388;2023-02-15T15:11:47;16.13;;;7.87;;
19151;SDS011;9708;53.114;9.388;2023-02-15T15:17:05;14.93;;;7.67;;
19151;SDS011;9708;53.114;9.388;2023-02-15T15:22:27;12.77;;;7.00;;
19151;SDS011;9708;53.114;9.388;2023-02-15T15:24:54;14.10;;;7.90;;
19151;SDS011;9708;53.114;9.388;2023-02-15T15:27:43;11.53;;;7.13;;
19151;SDS011;9708;53.114;9.388;2023-02-15T15:33:29;13.10;;;6.60;;
19151;SDS011;9708;53.114;9.388;2023-02-15T15:36:39;14.67;;;7.17;;